Time;durP1;ratioP1;P1;durP2;ratioP2;P2;SDS_P1;SDS_P2;PMS_P1;PMS_P2;Temp;Humidity;BMP_temperature;BMP_pressure;BME280_temperature;BME280_humidity;BME280_pressure;Samples;Min_cycle;Max_cycle;Signal;HPM_P1;HPM_P2
2023/12/08 00:00:48;;;;;;;202.00;80.87;;;;;;;-0.69;100.00;101148.34;4715472;60;1145374;-74
2023/12/08 00:05:55;;;;;;;220.17;80.65;;;;;;;-0.72;100.00;101150.99;4680873;60;1145462;-75
2023/12/08 00:11:01;;;;;;;197.90;77.80;;;;;;;-0.73;100.00;101157.08;4651183;60;1145054;-73
2023/12/08 00:16:08;;;;;;;217.95;81.47;;;;;;;-0.74;100.00;101148.42;4654550;62;1144969;-78
2023/12/08 00:21:14;;;;;;;252.63;90.40;;;;;;;-0.74;100.00;101148.42;4638203;59;1145118;-77
2023/12/08 00:26:19;;;;;;;215.97;81.77;;;;;;;-0.74;100.00;101147.12;4637718;61;1145317;-76
2023/12/08 00:31:25;;;;;;;208.07;78.57;;;;;;;-0.72;100.00;101154.45;4706993;60;1145120;-73
2023/12/08 00:36:30;;;;;;;194.83;77.47;;;;;;;-0.69;100.00;101153.53;4728775;59;1145331;-76
2023/12/08 00:41:36;;;;;;;224.43;86.37;;;;;;;-0.69;100.00;101155.27;4769927;60;1144905;-76
2023/12/08 00:46:42;;;;;;;217.30;81.97;;;;;;;-0.72;100.00;101145.80;4689607;60;1145228;-77
2023/12/08 00:51:48;;;;;;;200.57;79.23;;;;;;;-0.75;100.00;101152.34;4689632;61;1146083;-75
2023/12/08 00:56:53;;;;;;;210.27;81.07;;;;;;;-0.76;100.00;101147.59;4671312;61;1144750;-72
2023/12/08 01:01:59;;;;;;;214.35;80.25;;;;;;;-0.71;100.00;101151.41;4727499;59;1144905;-78
2023/12/08 01:07:05;;;;;;;202.07;77.70;;;;;;;-0.64;100.00;101159.94;4758679;59;1144926;-77
2023/12/08 01:12:10;;;;;;;195.23;77.73;;;;;;;-0.63;100.00;101154.71;4739683;59;1144900;-71
2023/12/08 01:17:16;;;;;;;207.07;79.87;;;;;;;-0.61;100.00;101163.30;4668785;60;1145027;-77
2023/12/08 01:22:27;;;;;;;209.73;79.40;;;;;;;-0.61;100.00;101166.38;4705498;61;1144964;-76
2023/12/08 01:27:28;;;;;;;215.97;84.07;;;;;;;-0.61;100.00;101159.41;4630959;60;1145065;-78
2023/12/08 01:32:34;;;;;;;209.83;81.00;;;;;;;-0.63;100.00;101156.01;4623765;60;1145109;-74
2023/12/08 01:37:40;;;;;;;207.87;84.20;;;;;;;-0.63;100.00;101159.05;4648425;60;1145516;-73
2023/12/08 01:42:47;;;;;;;203.67;75.87;;;;;;;-0.62;100.00;101162.06;4732154;60;1145137;-75
2023/12/08 01:47:54;;;;;;;202.70;78.25;;;;;;;-0.63;100.00;101167.70;4642302;61;1145151;-74
2023/12/08 01:53:00;;;;;;;198.00;73.60;;;;;;;-0.61;100.00;101164.59;4642011;62;1144910;-73
2023/12/08 01:58:06;;;;;;;204.67;78.70;;;;;;;-0.59;100.00;101151.14;4713616;60;1145247;-79
2023/12/08 02:03:13;;;;;;;222.00;79.17;;;;;;;-0.61;100.00;101137.33;4710721;60;1145032;-74
2023/12/08 02:08:20;;;;;;;191.60;72.10;;;;;;;-0.64;100.00;101115.34;4707148;61;1144815;-78
2023/12/08 02:13:25;;;;;;;202.67;77.23;;;;;;;-0.62;100.00;101109.67;4726443;61;1145136;-75
2023/12/08 02:18:32;;;;;;;202.83;74.63;;;;;;;-0.61;100.00;101113.94;4708086;61;1145157;-76
2023/12/08 02:23:40;;;;;;;177.37;67.97;;;;;;;-0.62;100.00;101103.62;4707560;61;1144902;-75
2023/12/08 02:28:46;;;;;;;174.57;70.80;;;;;;;-0.63;100.00;101097.56;4683056;60;1145239;-76
2023/12/08 02:33:55;;;;;;;174.60;66.53;;;;;;;-0.64;100.00;101089.80;4665988;61;1153062;-76
2023/12/08 02:39:02;;;;;;;177.05;70.10;;;;;;;-0.64;100.00;101084.16;4705961;60;1144995;-74
2023/12/08 02:44:08;;;;;;;163.83;67.00;;;;;;;-0.64;100.00;101084.16;4656929;60;1145239;-77
2023/12/08 02:49:13;;;;;;;180.22;70.15;;;;;;;-0.67;100.00;101072.54;4749593;59;1145062;-76
2023/12/08 02:54:19;;;;;;;177.83;71.07;;;;;;;-0.67;100.00;101075.58;4741199;59;1144891;-75
2023/12/08 02:59:24;;;;;;;186.67;70.53;;;;;;;-0.68;100.00;101086.41;4715571;60;1145192;-79
2023/12/08 03:04:30;;;;;;;193.63;73.60;;;;;;;-0.65;100.00;101078.56;4747679;60;1145117;-78
2023/12/08 03:09:35;;;;;;;187.50;73.50;;;;;;;-0.63;100.00;101067.70;4760610;60;1145057;-74
2023/12/08 03:14:41;;;;;;;206.87;73.00;;;;;;;-0.59;100.00;101075.80;4760173;60;1144812;-78
2023/12/08 03:19:46;;;;;;;206.43;77.27;;;;;;;-0.58;100.00;101073.62;4723189;60;1144968;-78
2023/12/08 03:24:52;;;;;;;211.63;76.57;;;;;;;-0.60;100.00;101056.35;4728938;60;1145196;-76
2023/12/08 03:29:57;;;;;;;224.88;81.90;;;;;;;-0.65;100.00;101047.39;4710576;59;1145080;-74
2023/12/08 03:35:03;;;;;;;216.73;76.30;;;;;;;-0.69;100.00;101054.84;4713011;60;1145392;-79
2023/12/08 03:40:10;;;;;;;208.87;80.30;;;;;;;-0.68;100.00;101047.45;4731570;60;1144762;-75
2023/12/08 03:45:16;;;;;;;205.00;79.30;;;;;;;-0.73;100.00;101037.16;4679263;59;1145020;-74
2023/12/08 03:50:21;;;;;;;194.17;72.10;;;;;;;-0.74;100.00;101044.98;4691869;59;1144943;-77
2023/12/08 03:55:27;;;;;;;199.20;77.13;;;;;;;-0.74;100.00;101040.64;4731025;59;1145169;-76
2023/12/08 04:00:33;;;;;;;202.20;73.97;;;;;;;-0.74;100.00;101049.73;4741107;59;1145289;-73
2023/12/08 04:05:38;;;;;;;191.07;72.63;;;;;;;-0.71;100.00;101057.47;4928528;58;1145145;-74
2023/12/08 04:10:44;;;;;;;197.47;71.53;;;;;;;-0.72;100.00;101060.95;4928171;58;1145025;-73
2023/12/08 04:15:50;;;;;;;189.57;68.13;;;;;;;-0.70;100.00;101062.21;4948158;57;1145062;-75
2023/12/08 04:20:56;;;;;;;178.57;66.60;;;;;;;-0.69;100.00;101047.05;4921642;58;1144920;-73
2023/12/08 04:26:02;;;;;;;214.48;76.77;;;;;;;-0.66;100.00;101043.53;4825882;60;1145221;-77
2023/12/08 04:31:07;;;;;;;256.82;93.55;;;;;;;-0.62;100.00;101028.28;4841184;60;1144985;-71
2023/12/08 04:36:13;;;;;;;259.07;91.37;;;;;;;-0.61;100.00;101018.31;4818197;60;1145047;-74
2023/12/08 04:41:18;;;;;;;225.30;79.23;;;;;;;-0.61;100.00;101015.23;4818133;60;1144926;-73
2023/12/08 04:46:25;;;;;;;207.67;68.90;;;;;;;-0.60;100.00;101002.66;4832410;58;1144965;-76
2023/12/08 04:51:30;;;;;;;193.68;66.02;;;;;;;-0.62;100.00;101010.96;4810174;58;1144907;-74
2023/12/08 04:56:36;;;;;;;197.37;64.07;;;;;;;-0.60;100.00;101018.24;4830119;58;1144962;-77
2023/12/08 05:01:42;;;;;;;196.77;66.13;;;;;;;-0.59;100.00;101021.25;4887756;58;1145143;-75
2023/12/08 05:06:50;;;;;;;180.27;62.33;;;;;;;-0.59;100.00;101013.45;4907096;58;1145159;-79
2023/12/08 05:11:55;;;;;;;175.60;61.13;;;;;;;-0.60;100.00;101013.49;4811717;58;1145070;-72
2023/12/08 05:17:01;;;;;;;171.50;62.40;;;;;;;-0.61;100.00;101018.31;4733437;60;1145297;-73
2023/12/08 05:22:07;;;;;;;184.95;64.42;;;;;;;-0.60;100.00;101014.34;4784098;59;1145190;-75
2023/12/08 05:27:12;;;;;;;171.30;60.15;;;;;;;-0.57;100.00;101018.62;4793774;59;1144922;-79
2023/12/08 05:32:18;;;;;;;179.83;60.53;;;;;;;-0.54;100.00;101026.34;4828237;59;1145210;-73
2023/12/08 05:37:23;;;;;;;173.73;61.23;;;;;;;-0.51;100.00;101027.58;4900885;58;1145135;-76
2023/12/08 05:42:29;;;;;;;165.53;58.27;;;;;;;-0.50;100.00;101032.74;4838460;59;1145134;-79
2023/12/08 05:47:34;;;;;;;166.07;58.93;;;;;;;-0.51;100.00;101032.33;4810853;59;1145182;-74
2023/12/08 05:52:40;;;;;;;191.60;70.50;;;;;;;-0.50;100.00;101043.58;4809747;59;1144823;-79
2023/12/08 05:57:46;;;;;;;186.03;63.10;;;;;;;-0.53;100.00;101038.45;4825582;60;1144988;-74
2023/12/08 06:02:51;;;;;;;183.20;64.90;;;;;;;-0.46;100.00;101051.72;4807470;60;1144846;-74
2023/12/08 06:07:57;;;;;;;189.67;64.93;;;;;;;-0.44;100.00;101048.61;4806493;59;1145263;-73
2023/12/08 06:13:03;;;;;;;185.70;67.80;;;;;;;-0.49;100.00;101029.70;4823706;60;1144868;-73
2023/12/08 06:18:10;;;;;;;206.53;69.67;;;;;;;-0.48;100.00;101032.27;4791750;59;1145076;-72
2023/12/08 06:23:15;;;;;;;198.07;72.45;;;;;;;-0.45;100.00;101027.41;4774671;59;1145024;-74
2023/12/08 06:28:21;;;;;;;187.90;64.30;;;;;;;-0.46;100.00;101025.73;4845027;59;1145091;-77
2023/12/08 06:33:27;;;;;;;174.93;58.77;;;;;;;-0.45;100.00;101037.80;4791997;59;1144926;-80
2023/12/08 06:38:33;;;;;;;178.53;65.33;;;;;;;-0.45;100.00;101030.86;4801429;59;1145169;-76
2023/12/08 06:43:39;;;;;;;195.47;68.97;;;;;;;-0.42;100.00;101034.69;4843521;59;1145240;-77
2023/12/08 06:48:44;;;;;;;223.10;79.33;;;;;;;-0.42;100.00;101028.20;4904974;59;1144916;-75
2023/12/08 06:53:50;;;;;;;225.80;83.83;;;;;;;-0.38;100.00;101028.53;4862541;58;1145222;-81
2023/12/08 06:58:56;;;;;;;231.78;85.05;;;;;;;-0.37;100.00;101032.84;4864352;59;1145330;-71
2023/12/08 07:04:03;;;;;;;165.03;64.35;;;;;;;-0.36;100.00;101029.80;4917956;59;1144928;-69
2023/12/08 07:09:09;;;;;;;164.40;57.73;;;;;;;-0.38;100.00;101042.83;4824363;59;1145029;-70
2023/12/08 07:14:15;;;;;;;169.20;61.23;;;;;;;-0.38;100.00;101048.03;4885445;59;1144827;-80
2023/12/08 07:19:20;;;;;;;172.40;59.90;;;;;;;-0.41;100.00;101044.20;4823152;59;1145237;-70
2023/12/08 07:24:26;;;;;;;187.13;64.50;;;;;;;-0.41;100.00;101055.03;4809855;59;1144869;-70
2023/12/08 07:29:31;;;;;;;184.33;65.57;;;;;;;-0.37;100.00;101048.88;4861159;59;1145514;-70
2023/12/08 07:34:37;;;;;;;173.03;63.67;;;;;;;-0.35;100.00;101027.61;4842472;59;1145144;-71
2023/12/08 07:39:43;;;;;;;169.67;58.27;;;;;;;-0.39;100.00;101027.27;4826482;59;1144982;-71
2023/12/08 07:44:52;;;;;;;174.38;61.85;;;;;;;-0.41;100.00;101013.46;4820851;56;1144894;-71
2023/12/08 07:49:57;;;;;;;152.85;56.95;;;;;;;-0.45;100.00;101004.02;4815382;57;1145160;-71
2023/12/08 07:55:03;;;;;;;148.17;53.83;;;;;;;-0.46;100.00;100982.38;4860020;58;1144915;-70
2023/12/08 08:00:10;;;;;;;143.67;51.07;;;;;;;-0.49;100.00;100982.48;4803738;59;1144996;-72
2023/12/08 08:05:16;;;;;;;171.60;57.77;;;;;;;-0.52;100.00;100968.72;4804945;58;1144928;-71
2023/12/08 08:10:21;;;;;;;130.30;47.05;;;;;;;-0.56;100.00;100978.32;4793101;59;1145210;-71
2023/12/08 08:15:35;;;;;;;112.63;39.87;;;;;;;-0.52;100.00;100979.11;5082235;55;97551;-68
2023/12/08 08:20:41;;;;;;;92.10;35.73;;;;;;;-0.55;100.00;101006.45;4976790;57;1141068;-69
2023/12/08 08:25:46;;;;;;;143.67;50.53;;;;;;;-0.61;100.00;101004.02;4786987;59;1143066;-67
2023/12/08 08:30:52;;;;;;;98.47;36.43;;;;;;;-0.64;100.00;101004.94;4842851;56;1145388;-69
2023/12/08 08:35:57;;;;;;;89.92;32.80;;;;;;;-0.64;100.00;100997.59;4911824;57;1142893;-68
2023/12/08 08:41:03;;;;;;;90.77;33.80;;;;;;;-0.66;100.00;100977.30;4857885;58;1143198;-69
2023/12/08 08:46:08;;;;;;;89.43;33.87;;;;;;;-0.67;100.00;100986.83;4882049;57;1143005;-69
2023/12/08 08:51:16;;;;;;;78.10;27.37;;;;;;;-0.64;100.00;100995.00;4864795;59;1143288;-68
2023/12/08 08:56:22;;;;;;;81.43;28.90;;;;;;;-0.61;100.00;100997.05;4952409;57;1143013;-69
2023/12/08 09:01:28;;;;;;;82.57;28.27;;;;;;;-0.56;100.00;101003.44;4882780;59;1142862;-70
2023/12/08 09:06:33;;;;;;;91.37;31.97;;;;;;;-0.55;100.00;101004.70;4951139;57;1142756;-69
2023/12/08 09:11:39;;;;;;;99.47;31.20;;;;;;;-0.53;100.00;101010.73;4953991;58;1143068;-68
2023/12/08 09:16:46;;;;;;;100.00;28.87;;;;;;;-0.51;100.00;101010.69;4909083;57;1142828;-68
2023/12/08 09:21:52;;;;;;;90.23;30.50;;;;;;;-0.49;100.00;101009.77;4909370;58;1145274;-70
2023/12/08 09:27:00;;;;;;;81.25;30.02;;;;;;;-0.51;100.00;100992.06;4921326;56;1143082;-71
2023/12/08 09:32:05;;;;;;;77.12;27.60;;;;;;;-0.49;100.00;100984.23;4930523;57;1143004;-68
2023/12/08 09:37:11;;;;;;;91.27;30.97;;;;;;;-0.47;100.00;100970.31;4920319;56;1143111;-67
2023/12/08 09:42:27;;;;;;;78.57;28.53;;;;;;;-0.43;100.00;100959.37;4918534;56;1143146;-68
2023/12/08 09:47:36;;;;;;;126.97;52.30;;;;;;;-0.39;100.00;100939.78;4999499;57;1142828;-70
2023/12/08 09:52:44;;;;;;;114.85;44.48;;;;;;;-0.41;100.00;100929.87;4968011;56;1144961;-69
2023/12/08 09:57:52;;;;;;;110.50;40.10;;;;;;;-0.32;100.00;100929.23;4915147;57;1144970;-69
2023/12/08 10:02:59;;;;;;;85.03;32.27;;;;;;;-0.27;100.00;100950.30;4900385;57;1153966;-70
2023/12/08 10:08:08;;;;;;;93.37;30.23;;;;;;;-0.22;100.00;100957.53;4897385;57;1142890;-70
2023/12/08 10:13:13;;;;;;;98.37;31.50;;;;;;;-0.24;100.00;100948.06;4924571;57;1143003;-69
2023/12/08 10:18:26;;;;;;;92.17;32.87;;;;;;;-0.20;100.00;100944.50;4956305;56;1142909;-69
2023/12/08 10:23:31;;;;;;;116.12;41.33;;;;;;;-0.13;100.00;100920.03;4956242;55;1143019;-76
2023/12/08 10:28:37;;;;;;;123.43;39.83;;;;;;;-0.09;100.00;100915.16;4965428;56;1145179;-76
2023/12/08 10:33:43;;;;;;;156.73;60.27;;;;;;;-0.08;100.00;100904.72;4890946;56;1145109;-75
2023/12/08 10:38:49;;;;;;;137.50;56.47;;;;;;;-0.05;100.00;100916.34;4900448;56;1145272;-73
2023/12/08 10:43:55;;;;;;;140.87;45.73;;;;;;;-0.01;100.00;100906.27;4877730;56;1145332;-74
2023/12/08 10:49:02;;;;;;;118.17;39.78;;;;;;;-0.01;100.00;100900.22;4838701;57;1145281;-77
2023/12/08 10:54:12;;;;;;;152.57;48.07;;;;;;;0.06;100.00;100890.03;4837493;56;1145078;-72
2023/12/08 10:59:24;;;;;;;118.73;43.60;;;;;;;0.10;100.00;100877.80;4952884;56;1142928;-72
2023/12/08 11:04:31;;;;;;;;;;;;;;;0.16;100.00;100869.35;4933465;56;1143132;-75
2023/12/08 11:09:40;;;;;;;137.20;47.10;;;;;;;0.21;100.00;100858.82;4989351;56;974036;-77
2023/12/08 11:14:50;;;;;;;120.25;42.75;;;;;;;0.23;100.00;100858.33;4961282;56;1140894;-74
2023/12/08 11:19:57;;;;;;;124.50;42.17;;;;;;;0.25;100.00;100850.89;4972290;57;1143257;-75
2023/12/08 11:25:07;;;;;;;130.50;44.17;;;;;;;0.29;100.00;100842.55;4969696;56;1143255;-76
2023/12/08 11:30:24;;;;;;;151.37;55.90;;;;;;;0.34;100.00;100843.25;4963557;56;1143023;-78
2023/12/08 11:35:30;;;;;;;141.57;49.13;;;;;;;0.37;100.00;100847.06;4983102;56;1142915;-75
2023/12/08 11:40:54;;;;;;;145.90;47.13;;;;;;;0.42;100.00;100843.03;4896339;57;1143033;-75
2023/12/08 11:46:01;;;;;;;138.30;51.13;;;;;;;0.45;100.00;100835.14;4918540;57;1142920;-76
2023/12/08 11:51:12;;;;;;;121.62;44.73;;;;;;;0.49;100.00;100833.67;4983889;57;1142715;-81
2023/12/08 11:56:41;;;;;;;134.97;47.17;;;;;;;0.58;100.00;100823.44;4863784;57;1143189;-75
2023/12/08 12:01:49;;;;;;;163.22;49.40;;;;;;;0.58;100.00;100823.44;4947126;57;1143155;-70
2023/12/08 12:06:55;;;;;;;142.37;48.83;;;;;;;0.55;100.00;100831.34;4958953;57;1142871;-71
2023/12/08 12:12:09;;;;;;;180.15;52.45;;;;;;;0.47;100.00;100831.56;4976178;57;1152834;-70
2023/12/08 12:17:15;;;;;;;153.40;45.63;;;;;;;0.48;100.00;100850.18;4981205;57;1143024;-76
2023/12/08 12:22:21;;;;;;;161.13;49.70;;;;;;;0.46;100.00;100849.85;4920151;57;1143728;-79
2023/12/08 12:27:26;;;;;;;167.47;54.27;;;;;;;0.43;100.00;100852.54;4810239;58;1143459;-79
2023/12/08 12:32:32;;;;;;;160.03;54.57;;;;;;;0.41;100.00;100856.94;4787228;58;1143615;-75
2023/12/08 12:37:38;;;;;;;207.43;70.13;;;;;;;0.38;100.00;100838.81;4782881;59;1143254;-72
2023/12/08 12:42:46;;;;;;;166.83;54.37;;;;;;;0.35;100.00;100832.80;4680130;61;1143331;-70
2023/12/08 12:48:00;;;;;;;158.27;51.57;;;;;;;0.34;100.00;100824.59;4808017;58;1142891;-71
2023/12/08 12:53:06;;;;;;;164.75;53.75;;;;;;;0.33;100.00;100812.48;4768162;58;1143288;-76
2023/12/08 12:58:24;;;;;;;151.15;50.17;;;;;;;0.34;100.00;100823.73;4796752;59;1143602;-78
2023/12/08 13:03:30;;;;;;;203.73;68.80;;;;;;;0.36;100.00;100823.24;4883804;58;1143052;-76
2023/12/08 13:08:45;;;;;;;166.57;51.30;;;;;;;0.33;100.00;100818.12;4893317;58;1143044;-69
2023/12/08 13:13:50;;;;;;;166.90;50.20;;;;;;;0.32;100.00;100807.32;4771520;58;1143047;-69
2023/12/08 13:18:56;;;;;;;160.77;49.73;;;;;;;0.29;100.00;100804.39;4769572;58;1142994;-73
2023/12/08 13:24:02;;;;;;;151.68;48.92;;;;;;;0.29;100.00;100806.14;4780055;58;1143498;-72
2023/12/08 13:29:07;;;;;;;160.45;49.88;;;;;;;0.27;100.00;100799.68;4988012;56;1142812;-77
2023/12/08 13:34:13;;;;;;;153.20;49.60;;;;;;;0.27;100.00;100800.13;5009872;57;1143060;-76
2023/12/08 13:39:18;;;;;;;159.40;49.97;;;;;;;0.26;100.00;100808.38;4953382;57;1143287;-76
2023/12/08 13:44:24;;;;;;;167.47;51.50;;;;;;;0.23;100.00;100800.66;4924951;57;1143162;-77
2023/12/08 13:49:32;;;;;;;165.20;54.00;;;;;;;0.23;100.00;100803.27;4939491;55;1143157;-78
2023/12/08 13:54:38;;;;;;;165.43;54.73;;;;;;;0.23;100.00;100799.36;4957613;56;1143017;-71
2023/12/08 13:59:43;;;;;;;156.87;51.30;;;;;;;0.25;100.00;100796.72;4979560;56;1142872;-76
2023/12/08 14:04:50;;;;;;;171.10;50.33;;;;;;;0.23;100.00;100787.66;5003777;55;1143085;-78
2023/12/08 14:09:58;;;;;;;157.60;49.23;;;;;;;0.20;100.00;100784.30;4964680;57;1143234;-77
2023/12/08 14:15:04;;;;;;;171.43;53.83;;;;;;;0.18;100.00;100788.23;5036994;56;1143233;-76
2023/12/08 14:20:11;;;;;;;146.20;48.58;;;;;;;0.17;100.00;100774.83;4959916;55;1143084;-75
2023/12/08 14:25:17;;;;;;;147.03;47.93;;;;;;;0.13;100.00;100771.95;4965050;56;1142857;-75
2023/12/08 14:30:22;;;;;;;152.02;49.27;;;;;;;0.02;100.00;100749.75;4947781;58;1143353;-73
2023/12/08 14:35:28;;;;;;;145.30;49.83;;;;;;;0.08;100.00;100758.22;4892077;58;1142991;-75
2023/12/08 14:40:33;;;;;;;156.87;50.05;;;;;;;0.08;100.00;100772.97;4976890;57;1142888;-74
2023/12/08 14:45:39;;;;;;;164.40;55.40;;;;;;;0.09;100.00;100766.88;5008578;57;1152380;-76
2023/12/08 14:50:46;;;;;;;179.10;60.77;;;;;;;0.07;100.00;100761.72;4942409;57;1143083;-75
2023/12/08 14:55:51;;;;;;;213.53;73.90;;;;;;;0.05;100.00;100750.95;4909206;57;1142938;-75
2023/12/08 15:00:58;;;;;;;269.30;94.50;;;;;;;0.02;100.00;100757.09;4950781;57;1143247;-76
2023/12/08 15:06:03;;;;;;;170.12;59.93;;;;;;;0.03;100.00;100760.55;4976496;57;1142847;-75
2023/12/08 15:11:11;;;;;;;151.30;51.87;;;;;;;0.03;100.00;100760.55;4970402;56;1143058;-74
2023/12/08 15:16:16;;;;;;;156.72;52.67;;;;;;;0.04;100.00;100751.41;4969713;56;1143016;-74
2023/12/08 15:21:23;;;;;;;137.00;49.30;;;;;;;0.00;100.00;100735.05;4906734;58;1143094;-74
2023/12/08 15:26:28;;;;;;;129.90;46.57;;;;;;;0.03;100.00;100741.05;4972488;56;1143163;-75
2023/12/08 15:31:34;;;;;;;148.43;53.90;;;;;;;0.02;100.00;100748.00;4894197;57;1143147;-76
2023/12/08 15:36:40;;;;;;;153.70;52.53;;;;;;;0.03;100.00;100741.05;4873984;58;1143309;-76
2023/12/08 15:41:45;;;;;;;145.77;50.47;;;;;;;0.02;100.00;100720.70;4908412;58;1143122;-80
2023/12/08 15:46:51;;;;;;;152.00;52.07;;;;;;;-0.01;100.00;100707.38;4861593;57;1143208;-76
2023/12/08 15:51:56;;;;;;;149.30;51.87;;;;;;;-0.02;100.00;100716.52;4874862;57;1145103;-77
2023/12/08 15:57:03;;;;;;;146.07;48.27;;;;;;;-0.02;100.00;100732.11;4847466;58;1145166;-76
2023/12/08 16:02:10;;;;;;;133.63;47.78;;;;;;;-0.02;100.00;100725.16;4756119;58;1145211;-77
2023/12/08 16:07:16;;;;;;;132.43;45.43;;;;;;;-0.03;100.00;100716.96;4849131;58;1145132;-77
2023/12/08 16:12:21;;;;;;;143.20;48.10;;;;;;;-0.02;100.00;100722.56;4910961;58;1145196;-77
2023/12/08 16:17:28;;;;;;;147.32;50.80;;;;;;;0.00;100.00;100738.94;4843109;58;1145074;-74
2023/12/08 16:22:33;;;;;;;176.63;66.13;;;;;;;0.00;100.00;100738.94;4784900;58;1143088;-75
2023/12/08 16:27:39;;;;;;;138.77;50.80;;;;;;;0.04;100.00;100747.95;4840328;57;1143046;-74
2023/12/08 16:32:45;;;;;;;211.30;73.13;;;;;;;0.06;100.00;100748.31;5020352;58;1142937;-74
2023/12/08 16:37:50;;;;;;;156.18;54.88;;;;;;;0.07;100.00;100744.81;4921382;58;1142965;-74
2023/12/08 16:42:56;;;;;;;123.78;42.00;;;;;;;0.09;100.00;100753.42;5003428;57;1143105;-74
2023/12/08 16:48:01;;;;;;;112.97;38.57;;;;;;;0.08;100.00;100760.83;4988180;57;1143197;-74
2023/12/08 16:53:07;;;;;;;109.30;41.07;;;;;;;0.09;100.00;100755.17;4829976;59;1143372;-73
2023/12/08 16:58:13;;;;;;;98.65;38.73;;;;;;;0.11;100.00;100763.78;4906936;58;1142665;-75
2023/12/08 17:03:18;;;;;;;122.07;47.67;;;;;;;0.12;100.00;100766.79;4921945;56;1141039;-77
2023/12/08 17:08:24;;;;;;;112.57;44.13;;;;;;;0.14;100.00;100763.25;4946422;58;1143061;-76
2023/12/08 17:13:30;;;;;;;102.00;43.13;;;;;;;0.14;100.00;100742.89;4872905;59;1143108;-76
2023/12/08 17:18:35;;;;;;;98.50;40.88;;;;;;;0.15;100.00;100743.30;4945803;57;1142796;-76
2023/12/08 17:23:41;;;;;;;120.10;47.93;;;;;;;0.15;100.00;100732.89;4874924;58;1140786;-77
2023/12/08 17:28:47;;;;;;;87.62;36.88;;;;;;;0.16;100.00;100737.16;4952573;58;1143344;-77
2023/12/08 17:33:52;;;;;;;101.07;41.13;;;;;;;0.14;100.00;100733.34;4883652;57;1141213;-77
2023/12/08 17:38:58;;;;;;;85.60;36.97;;;;;;;0.15;100.00;100731.14;4885650;59;1143159;-76
2023/12/08 17:44:04;;;;;;;81.53;35.57;;;;;;;0.17;100.00;100734.97;4865982;58;1141080;-77
2023/12/08 17:49:09;;;;;;;85.77;36.50;;;;;;;0.14;100.00;100732.48;5015182;55;1140689;-76
2023/12/08 17:54:16;;;;;;;80.30;34.60;;;;;;;0.15;100.00;100732.45;5024164;55;1141397;-79
2023/12/08 17:59:22;;;;;;;94.10;37.70;;;;;;;0.17;100.00;100734.52;5029997;55;1140855;-76
2023/12/08 18:04:28;;;;;;;92.00;38.70;;;;;;;0.18;100.00;100726.27;4984285;57;1141380;-80
2023/12/08 18:09:38;;;;;;;86.73;36.27;;;;;;;0.17;100.00;100726.72;4964167;57;1140923;-78
2023/12/08 18:14:44;;;;;;;85.03;34.70;;;;;;;0.16;100.00;100726.31;4962914;55;1140963;-78
2023/12/08 18:19:50;;;;;;;79.80;33.40;;;;;;;0.14;100.00;100727.29;4906201;57;1140968;-77
2023/12/08 18:24:56;;;;;;;86.30;34.90;;;;;;;0.11;100.00;100723.48;4903919;57;1140976;-79
2023/12/08 18:30:03;;;;;;;93.40;40.17;;;;;;;0.08;100.00;100722.27;4893390;56;1140989;-79
2023/12/08 18:35:09;;;;;;;86.93;36.67;;;;;;;0.06;100.00;100728.81;4796833;57;1141028;-79
2023/12/08 18:40:15;;;;;;;85.40;38.57;;;;;;;0.02;100.00;100734.14;4745043;59;1141226;-79
2023/12/08 18:45:21;;;;;;;98.10;42.50;;;;;;;-0.04;100.00;100734.75;4845987;58;1141065;-80
2023/12/08 18:50:26;;;;;;;94.50;39.07;;;;;;;-0.01;100.00;100748.12;4797691;58;1142895;-78
2023/12/08 18:55:32;;;;;;;93.47;38.40;;;;;;;-0.01;100.00;100735.97;4780918;59;1143054;-79
2023/12/08 19:00:37;;;;;;;88.73;36.93;;;;;;;-0.01;100.00;100733.37;4765389;59;1142916;-79
2023/12/08 19:05:43;;;;;;;89.73;37.83;;;;;;;-0.02;100.00;100742.06;4922742;57;1143016;-78
2023/12/08 19:10:50;;;;;;;99.93;40.77;;;;;;;-0.06;100.00;100739.59;4948548;57;1143185;-79
2023/12/08 19:15:55;;;;;;;102.62;41.95;;;;;;;-0.07;100.00;100733.55;4971736;57;1142947;-79
2023/12/08 19:21:01;;;;;;;98.30;40.23;;;;;;;-0.09;100.00;100744.44;5046746;56;1145032;-80
2023/12/08 19:26:06;;;;;;;105.23;49.90;;;;;;;-0.07;100.00;100741.79;4952544;57;1143249;-78
2023/12/08 19:31:13;;;;;;;90.83;38.35;;;;;;;-0.06;100.00;100740.89;5026742;56;1144970;-80
2023/12/08 19:36:18;;;;;;;93.75;39.45;;;;;;;-0.08;100.00;100730.98;4963842;57;1142882;-78
2023/12/08 19:41:24;;;;;;;91.42;39.58;;;;;;;-0.08;100.00;100721.44;4869963;58;1142946;-80
2023/12/08 19:46:29;;;;;;;98.00;38.97;;;;;;;-0.12;100.00;100719.83;4842992;58;1142958;-79
2023/12/08 19:51:35;;;;;;;102.13;41.20;;;;;;;-0.16;100.00;100721.28;4952406;57;1143203;-80
2023/12/08 19:56:43;;;;;;;100.40;41.30;;;;;;;-0.22;100.00;100718.41;4997898;56;1145124;-80
2023/12/08 20:01:48;;;;;;;101.90;41.80;;;;;;;-0.28;100.00;100713.39;4963758;57;1145170;-79
2023/12/08 20:06:53;;;;;;;97.30;42.07;;;;;;;-0.27;100.00;100720.73;5049313;56;1145272;-82
2023/12/08 20:11:59;;;;;;;94.80;43.20;;;;;;;-0.28;100.00;100720.33;5040288;56;1142852;-80
2023/12/08 20:17:05;;;;;;;91.00;39.58;;;;;;;-0.29;100.00;100696.09;5026682;56;1143073;-79
2023/12/08 20:22:10;;;;;;;95.00;39.27;;;;;;;-0.33;100.00;100708.80;5053619;56;1152617;-80
2023/12/08 20:27:16;;;;;;;108.92;43.58;;;;;;;-0.34;100.00;100717.94;5013609;56;1143373;-80
2023/12/08 20:32:22;;;;;;;91.70;40.37;;;;;;;-0.36;100.00;100704.54;4964018;56;1144910;-80
2023/12/08 20:37:28;;;;;;;86.93;38.73;;;;;;;-0.34;100.00;100705.80;5022719;56;1142915;-79
2023/12/08 20:42:34;;;;;;;89.37;39.03;;;;;;;-0.32;100.00;100697.95;4971028;57;1142877;-80
2023/12/08 20:47:40;;;;;;;90.83;38.57;;;;;;;-0.33;100.00;100702.30;4964869;57;1143261;-80
2023/12/08 20:52:46;;;;;;;82.40;36.23;;;;;;;-0.31;100.00;100703.56;4964249;58;1143042;-79
2023/12/08 20:57:52;;;;;;;84.07;36.37;;;;;;;-0.32;100.00;100696.66;5002016;56;1142956;-80
2023/12/08 21:02:59;;;;;;;81.20;35.73;;;;;;;-0.32;100.00;100701.41;5005859;56;1143060;-80
2023/12/08 21:08:05;;;;;;;85.60;34.73;;;;;;;-0.32;100.00;100705.75;4972755;56;1142922;-80
2023/12/08 21:13:11;;;;;;;84.57;38.23;;;;;;;-0.33;100.00;100705.34;5067580;56;1152555;-77
2023/12/08 21:18:17;;;;;;;78.65;38.13;;;;;;;-0.32;100.00;100708.34;5047563;56;1143250;-77
2023/12/08 21:23:22;;;;;;;95.57;39.00;;;;;;;-0.32;100.00;100709.66;5047978;56;1143189;-76
2023/12/08 21:28:28;;;;;;;89.40;39.47;;;;;;;-0.32;100.00;100700.55;5067770;56;1142912;-78
2023/12/08 21:33:34;;;;;;;88.87;37.83;;;;;;;-0.33;100.00;100701.00;5035698;55;1143095;-77
2023/12/08 21:38:39;;;;;;;79.60;36.13;;;;;;;-0.37;100.00;100707.18;4981017;56;1143127;-76
2023/12/08 21:43:45;;;;;;;123.92;52.50;;;;;;;-0.40;100.00;100703.37;4966809;57;1143189;-77
2023/12/08 21:48:50;;;;;;;105.83;43.20;;;;;;;-0.41;100.00;100712.05;4889394;58;1144966;-77
2023/12/08 21:53:56;;;;;;;87.60;37.40;;;;;;;-0.41;100.00;100703.81;4976852;57;1145064;-77
2023/12/08 21:59:01;;;;;;;95.00;42.53;;;;;;;-0.43;100.00;100703.45;4922625;57;1142965;-77
2023/12/08 22:04:07;;;;;;;113.90;48.07;;;;;;;-0.44;100.00;100706.94;5041445;56;1142945;-77
2023/12/08 22:09:13;;;;;;;91.80;37.80;;;;;;;-0.48;100.00;100714.00;4950572;57;1144972;-77
2023/12/08 22:14:18;;;;;;;85.43;36.53;;;;;;;-0.48;100.00;100709.25;4954281;57;1142895;-78
2023/12/08 22:19:24;;;;;;;104.50;40.90;;;;;;;-0.50;100.00;100711.89;4973552;57;1143180;-77